Wildomar, CA (92595)

7:28 AM PST on January 24, 2017 (GMT -0800)
Windsong | | Change Station
Active Advisory: Frost Advisory

Elev 1286 ft 33.60 °N, 117.26 °W | Updated 16 seconds ago

Partly Cloudy
Partly Cloudy
34.7 °F
Feels Like 35 °F
N
0.0
Wind Variable Wind from WNW
Gusts 0.0 mph

Today
High -- | Low -- °F
--% Chance of Precip.
Yesterday
High -- | Low -- °F
Precip. -- in
Pressure 29.97 in
Visibility 10.0 miles
Clouds Clear
Windchill 35 °F
Dew Point 34 °F
Humidity 98%
Rainfall 0.00 in
Snow Depth Not available.
6:50 AM 5:12 PM
Waning Crescent, 11% visible
METAR KF70 241455Z AUTO 13003KT 10SM CLR 02/02 A2997 RMK AO1
Pressure 29.97 in
Visibility 10.0 miles
Clouds Clear
Windchill 35 °F
Dew Point 34 °F
Humidity 98%
Rainfall 0.00 in
Snow Depth Not available.
6:50 AM 5:12 PM
Waning Crescent, 11% visible
METAR KF70 241455Z AUTO 13003KT 10SM CLR 02/02 A2997 RMK AO1

Get Your Daily Forecast Email!

Thanks for signing up!

Be on the lookout for a verification email in your inbox.

You'll start receiving the daily forecast at 8 AM.

×

10-Day Weather Forecast

Almanac

Astronomy

Jan. 24, 2017 Rise Set
Actual Time
Civil Twilight
Nautical Twilight
Astronomical Twilight
Moon
Length of Visible Light
Length of Day
Tomorrow will be .
, % of the Moon is Illuminated

Today's Extremes

State Highs State Lows

Community

WunderPhotos

Upload Photos

1,962,540 photos uploaded!

WunderBlog® & News

Nearby

Air Quality

  Air Quality AQ Index Pollutant
Not available.

Snow Depth

Station Depth Elevation

Earthquake Activity

City Distance Mag. Time & Date
Minimum magnitude displayed is 2.5.

Coastal Water Temperatures

Place Temperature

Stations

Nearby Weather Stations

Station Location Temp. Windchill Dew Point Humidity Wind Precip. Elev Updated Type
                   

Watches & Warnings

Frost Advisory
Issued: 2:56 AM PST Jan. 24, 2017 – National Weather Service

... Frost advisory remains in effect until 8 am PST this morning...
... Frost advisory remains in effect from 9 PM this evening to
8 am PST Wednesday...

* location... inland portions of the inland Empire.

* Temperature... low temperatures in the mid 30s in southern and
eastern portions of the inland Empire early this morning... and
in the lower to mid 30s in all but the far western inland Empire
for late tonight into early Wednesday morning.

* Impacts... sensitive outdoor plants may be killed if left
uncovered.

Precautionary/preparedness actions...

A frost advisory means that widespread frost is expected.
Sensitive outdoor plants may be killed if left uncovered.